sensor_id;sensor_type;location;lat;lon;timestamp;pressure;altitude;pressure_sealevel;temperature;humidity
60433;BME280;46286;48.098;11.590;2023-04-08T00:01:12;95560.41;;;2.01;100.00
60433;BME280;46286;48.098;11.590;2023-04-08T00:03:37;95556.09;;;1.95;100.00
60433;BME280;46286;48.098;11.590;2023-04-08T00:06:03;95559.09;;;1.92;100.00
60433;BME280;46286;48.098;11.590;2023-04-08T00:08:29;95550.22;;;2.43;100.00
60433;BME280;46286;48.098;11.590;2023-04-08T00:10:55;95556.41;;;2.23;100.00
60433;BME280;46286;48.098;11.590;2023-04-08T00:13:20;95545.16;;;2.48;100.00
60433;BME280;46286;48.098;11.590;2023-04-08T00:15:46;95552.38;;;2.65;100.00
60433;BME280;46286;48.098;11.590;2023-04-08T00:18:13;95553.81;;;2.79;100.00
60433;BME280;46286;48.098;11.590;2023-04-08T00:20:40;95556.09;;;2.87;100.00
60433;BME280;46286;48.098;11.590;2023-04-08T00:23:06;95558.97;;;2.49;100.00
60433;BME280;46286;48.098;11.590;2023-04-08T00:25:32;95558.94;;;2.30;100.00
60433;BME280;46286;48.098;11.590;2023-04-08T00:27:57;95555.53;;;2.67;100.00
60433;BME280;46286;48.098;11.590;2023-04-08T00:30:23;95558.03;;;2.62;100.00
60433;BME280;46286;48.098;11.590;2023-04-08T00:32:48;95556.13;;;2.69;100.00
60433;BME280;46286;48.098;11.590;2023-04-08T00:35:14;95563.34;;;2.48;100.00
60433;BME280;46286;48.098;11.590;2023-04-08T00:37:40;95561.59;;;2.23;100.00
60433;BME280;46286;48.098;11.590;2023-04-08T00:40:06;95571.13;;;2.30;100.00
60433;BME280;46286;48.098;11.590;2023-04-08T00:42:31;95572.00;;;2.23;100.00
60433;BME280;46286;48.098;11.590;2023-04-08T00:44:57;95567.25;;;2.39;100.00
60433;BME280;46286;48.098;11.590;2023-04-08T00:47:22;95571.22;;;2.41;100.00
60433;BME280;46286;48.098;11.590;2023-04-08T00:49:48;95578.34;;;2.28;100.00
60433;BME280;46286;48.098;11.590;2023-04-08T00:52:14;95568.81;;;2.58;100.00
60433;BME280;46286;48.098;11.590;2023-04-08T00:54:40;95570.34;;;2.66;100.00
60433;BME280;46286;48.098;11.590;2023-04-08T00:57:06;95565.22;;;2.59;100.00
60433;BME280;46286;48.098;11.590;2023-04-08T00:59:32;95568.69;;;2.72;100.00
60433;BME280;46286;48.098;11.590;2023-04-08T01:02:17;95560.56;;;2.80;100.00
60433;BME280;46286;48.098;11.590;2023-04-08T01:07:35;95558.41;;;2.77;100.00
60433;BME280;46286;48.098;11.590;2023-04-08T01:10:04;95566.94;;;2.84;100.00
60433;BME280;46286;48.098;11.590;2023-04-08T01:12:32;95557.41;;;2.78;100.00
60433;BME280;46286;48.098;11.590;2023-04-08T01:15:04;95569.41;;;2.79;100.00
60433;BME280;46286;48.098;11.590;2023-04-08T01:17:31;95562.16;;;2.81;100.00
60433;BME280;46286;48.098;11.590;2023-04-08T01:19:59;95558.78;;;2.81;100.00
60433;BME280;46286;48.098;11.590;2023-04-08T01:25:26;95564.22;;;2.79;100.00
60433;BME280;46286;48.098;11.590;2023-04-08T01:27:55;95556.97;;;2.81;100.00
60433;BME280;46286;48.098;11.590;2023-04-08T01:30:23;95556.47;;;2.91;100.00
60433;BME280;46286;48.098;11.590;2023-04-08T01:32:53;95557.25;;;2.91;100.00
60433;BME280;46286;48.098;11.590;2023-04-08T01:35:19;95562.63;;;2.78;100.00
60433;BME280;46286;48.098;11.590;2023-04-08T01:37:48;95556.09;;;2.87;100.00
60433;BME280;46286;48.098;11.590;2023-04-08T01:40:15;95559.72;;;2.86;100.00
60433;BME280;46286;48.098;11.590;2023-04-08T01:42:43;95552.59;;;2.82;100.00
60433;BME280;46286;48.098;11.590;2023-04-08T01:45:10;95557.56;;;2.83;100.00
60433;BME280;46286;48.098;11.590;2023-04-08T01:47:37;95560.50;;;2.87;100.00
60433;BME280;46286;48.098;11.590;2023-04-08T01:50:03;95556.31;;;2.86;100.00
60433;BME280;46286;48.098;11.590;2023-04-08T01:52:31;95565.19;;;2.97;100.00
60433;BME280;46286;48.098;11.590;2023-04-08T01:54:59;95561.88;;;2.89;100.00
60433;BME280;46286;48.098;11.590;2023-04-08T01:57:27;95566.50;;;2.87;100.00
60433;BME280;46286;48.098;11.590;2023-04-08T02:00:02;95559.63;;;2.93;100.00
60433;BME280;46286;48.098;11.590;2023-04-08T02:02:31;95566.50;;;2.87;100.00
60433;BME280;46286;48.098;11.590;2023-04-08T02:04:57;95554.53;;;2.86;100.00
60433;BME280;46286;48.098;11.590;2023-04-08T02:07:23;95566.50;;;2.87;100.00
60433;BME280;46286;48.098;11.590;2023-04-08T02:09:51;95560.88;;;2.90;100.00
60433;BME280;46286;48.098;11.590;2023-04-08T02:12:17;95556.53;;;2.84;100.00
60433;BME280;46286;48.098;11.590;2023-04-08T02:14:43;95566.50;;;2.87;100.00
60433;BME280;46286;48.098;11.590;2023-04-08T02:17:11;95563.09;;;2.87;100.00
60433;BME280;46286;48.098;11.590;2023-04-08T02:19:56;95565.72;;;2.87;100.00
60433;BME280;46286;48.098;11.590;2023-04-08T02:25:12;95564.91;;;2.86;100.00
60433;BME280;46286;48.098;11.590;2023-04-08T02:27:38;95561.28;;;2.87;100.00
60433;BME280;46286;48.098;11.590;2023-04-08T02:30:05;95562.16;;;2.81;100.00
60433;BME280;46286;48.098;11.590;2023-04-08T02:32:33;95560.56;;;2.80;100.00
60433;BME280;46286;48.098;11.590;2023-04-08T02:35:03;95565.78;;;2.80;100.00
60433;BME280;46286;48.098;11.590;2023-04-08T02:37:30;95566.66;;;2.74;100.00
60433;BME280;46286;48.098;11.590;2023-04-08T02:39:56;95570.84;;;2.75;100.00
60433;BME280;46286;48.098;11.590;2023-04-08T02:42:22;95567.47;;;2.74;100.00
60433;BME280;46286;48.098;11.590;2023-04-08T02:44:48;95565.88;;;2.73;100.00
60433;BME280;46286;48.098;11.590;2023-04-08T02:47:13;95561.84;;;2.77;100.00
60433;BME280;46286;48.098;11.590;2023-04-08T02:49:39;95565.06;;;2.73;100.00
60433;BME280;46286;48.098;11.590;2023-04-08T02:52:04;95559.09;;;2.72;100.00
60433;BME280;46286;48.098;11.590;2023-04-08T02:54:30;95558.75;;;2.69;100.00
60433;BME280;46286;48.098;11.590;2023-04-08T02:56:56;95557.59;;;2.65;100.00
60433;BME280;46286;48.098;11.590;2023-04-08T02:59:21;95557.69;;;2.70;100.00
60433;BME280;46286;48.098;11.590;2023-04-08T03:01:47;95555.81;;;2.77;100.00
60433;BME280;46286;48.098;11.590;2023-04-08T03:04:12;95563.50;;;2.72;100.00
60433;BME280;46286;48.098;11.590;2023-04-08T03:06:38;95566.22;;;2.77;100.00
60433;BME280;46286;48.098;11.590;2023-04-08T03:09:03;95561.00;;;2.77;100.00
60433;BME280;46286;48.098;11.590;2023-04-08T03:11:30;95563.75;;;2.82;100.00
60433;BME280;46286;48.098;11.590;2023-04-08T03:13:56;95560.16;;;2.83;100.00
60433;BME280;46286;48.098;11.590;2023-04-08T03:16:22;95568.97;;;2.82;100.00
60433;BME280;46286;48.098;11.590;2023-04-08T03:18:48;95573.28;;;2.88;100.00
60433;BME280;46286;48.098;11.590;2023-04-08T03:21:15;95569.25;;;2.92;100.00
60433;BME280;46286;48.098;11.590;2023-04-08T03:23:41;95580.50;;;3.05;100.00
60433;BME280;46286;48.098;11.590;2023-04-08T03:26:07;95579.91;;;3.03;100.00
60433;BME280;46286;48.098;11.590;2023-04-08T03:28:32;95570.88;;;3.05;100.00
60433;BME280;46286;48.098;11.590;2023-04-08T03:30:58;95572.25;;;3.08;100.00
60433;BME280;46286;48.098;11.590;2023-04-08T03:33:25;95569.75;;;3.13;100.00
60433;BME280;46286;48.098;11.590;2023-04-08T03:35:52;95571.03;;;3.10;100.00
60433;BME280;46286;48.098;11.590;2023-04-08T03:38:18;95574.97;;;3.13;100.00
60433;BME280;46286;48.098;11.590;2023-04-08T03:40:43;95571.72;;;3.18;100.00
60433;BME280;46286;48.098;11.590;2023-04-08T03:43:09;95571.28;;;3.21;100.00
60433;BME280;46286;48.098;11.590;2023-04-08T03:45:36;95573.88;;;3.21;100.00
60433;BME280;46286;48.098;11.590;2023-04-08T03:48:02;95576.25;;;3.22;100.00
60433;BME280;46286;48.098;11.590;2023-04-08T03:50:27;95578.41;;;3.25;100.00
60433;BME280;46286;48.098;11.590;2023-04-08T03:52:53;95583.75;;;3.31;100.00
60433;BME280;46286;48.098;11.590;2023-04-08T03:55:18;95583.16;;;3.28;100.00
60433;BME280;46286;48.098;11.590;2023-04-08T03:57:44;95577.97;;;3.28;100.00
60433;BME280;46286;48.098;11.590;2023-04-08T04:00:10;95580.72;;;3.34;100.00
60433;BME280;46286;48.098;11.590;2023-04-08T04:02:36;95587.06;;;3.38;100.00
60433;BME280;46286;48.098;11.590;2023-04-08T04:05:01;95587.63;;;3.40;100.00
60433;BME280;46286;48.098;11.590;2023-04-08T04:07:27;95590.66;;;3.37;100.00
60433;BME280;46286;48.098;11.590;2023-04-08T04:09:52;95590.22;;;3.40;100.00
60433;BME280;46286;48.098;11.590;2023-04-08T04:12:20;95591.47;;;3.37;100.00
60433;BME280;46286;48.098;11.590;2023-04-08T04:14:46;95599.03;;;3.39;100.00
60433;BME280;46286;48.098;11.590;2023-04-08T04:17:11;95596.56;;;3.44;100.00
60433;BME280;46286;48.098;11.590;2023-04-08T04:19:37;95604.59;;;3.42;100.00
60433;BME280;46286;48.098;11.590;2023-04-08T04:22:02;95606.84;;;3.39;100.00
60433;BME280;46286;48.098;11.590;2023-04-08T04:24:28;95604.94;;;3.46;100.00
60433;BME280;46286;48.098;11.590;2023-04-08T04:26:53;95605.84;;;3.40;100.00
60433;BME280;46286;48.098;11.590;2023-04-08T04:29:19;95608.13;;;3.48;100.00
60433;BME280;46286;48.098;11.590;2023-04-08T04:31:44;95607.69;;;3.51;100.00
60433;BME280;46286;48.098;11.590;2023-04-08T04:34:10;95608.25;;;3.53;100.00
60433;BME280;46286;48.098;11.590;2023-04-08T04:36:36;95614.03;;;3.55;100.00
60433;BME280;46286;48.098;11.590;2023-04-08T04:39:01;95611.53;;;3.60;100.00
60433;BME280;46286;48.098;11.590;2023-04-08T04:41:27;95617.44;;;3.68;100.00
60433;BME280;46286;48.098;11.590;2023-04-08T04:43:52;95619.50;;;3.66;100.00
60433;BME280;46286;48.098;11.590;2023-04-08T04:46:18;95619.25;;;3.67;100.00
60433;BME280;46286;48.098;11.590;2023-04-08T04:48:43;95621.34;;;3.77;100.00
60433;BME280;46286;48.098;11.590;2023-04-08T04:51:09;95625.31;;;3.79;100.00
60433;BME280;46286;48.098;11.590;2023-04-08T04:53:35;95624.50;;;3.79;100.00
60433;BME280;46286;48.098;11.590;2023-04-08T04:56:01;95622.94;;;3.78;100.00
60433;BME280;46286;48.098;11.590;2023-04-08T04:58:27;95627.31;;;3.77;100.00
60433;BME280;46286;48.098;11.590;2023-04-08T05:00:52;95624.94;;;3.76;100.00
60433;BME280;46286;48.098;11.590;2023-04-08T05:03:18;95623.03;;;3.83;100.00
60433;BME280;46286;48.098;11.590;2023-04-08T05:05:44;95630.06;;;3.83;100.00
60433;BME280;46286;48.098;11.590;2023-04-08T05:08:09;95623.16;;;3.88;100.00
60433;BME280;46286;48.098;11.590;2023-04-08T05:10:35;95627.91;;;3.91;100.00
60433;BME280;46286;48.098;11.590;2023-04-08T05:13:00;95627.03;;;3.97;100.00
60433;BME280;46286;48.098;11.590;2023-04-08T05:15:26;95634.28;;;3.95;100.00
60433;BME280;46286;48.098;11.590;2023-04-08T05:17:51;95630.22;;;3.99;100.00
60433;BME280;46286;48.098;11.590;2023-04-08T05:20:17;95629.75;;;4.03;100.00
60433;BME280;46286;48.098;11.590;2023-04-08T05:22:42;95628.53;;;4.05;100.00
60433;BME280;46286;48.098;11.590;2023-04-08T05:25:09;95625.34;;;4.15;100.00
60433;BME280;46286;48.098;11.590;2023-04-08T05:27:35;95631.22;;;4.22;100.00
60433;BME280;46286;48.098;11.590;2023-04-08T05:30:01;95623.88;;;4.19;100.00
60433;BME280;46286;48.098;11.590;2023-04-08T05:32:27;95636.56;;;4.27;100.00
60433;BME280;46286;48.098;11.590;2023-04-08T05:34:54;95638.03;;;4.35;100.00
60433;BME280;46286;48.098;11.590;2023-04-08T05:37:19;95637.94;;;4.42;100.00
60433;BME280;46286;48.098;11.590;2023-04-08T05:39:45;95637.81;;;4.48;100.00
60433;BME280;46286;48.098;11.590;2023-04-08T05:42:10;95639.06;;;4.46;100.00
60433;BME280;46286;48.098;11.590;2023-04-08T05:44:38;95634.31;;;4.43;100.00
60433;BME280;46286;48.098;11.590;2023-04-08T05:47:05;95634.53;;;4.53;100.00
60433;BME280;46286;48.098;11.590;2023-04-08T05:49:32;95639.97;;;4.51;100.00
60433;BME280;46286;48.098;11.590;2023-04-08T05:51:58;95635.22;;;4.60;100.00
60433;BME280;46286;48.098;11.590;2023-04-08T05:54:23;95638.38;;;4.62;100.00
60433;BME280;46286;48.098;11.590;2023-04-08T05:56:49;95635.06;;;4.79;100.00
60433;BME280;46286;48.098;11.590;2023-04-08T05:59:14;95634.28;;;4.66;100.00
60433;BME280;46286;48.098;11.590;2023-04-08T06:01:40;95633.72;;;4.76;100.00
60433;BME280;46286;48.098;11.590;2023-04-08T06:04:05;95645.38;;;4.74;100.00
60433;BME280;46286;48.098;11.590;2023-04-08T06:06:31;95641.19;;;4.84;100.00
60433;BME280;46286;48.098;11.590;2023-04-08T06:08:56;95641.06;;;4.91;100.00
60433;BME280;46286;48.098;11.590;2023-04-08T06:11:22;95648.22;;;4.96;100.00
60433;BME280;46286;48.098;11.590;2023-04-08T06:13:48;95645.84;;;4.94;100.00
60433;BME280;46286;48.098;11.590;2023-04-08T06:16:15;95653.53;;;4.89;100.00
60433;BME280;46286;48.098;11.590;2023-04-08T06:18:41;95656.25;;;4.94;100.00
60433;BME280;46286;48.098;11.590;2023-04-08T06:21:07;95646.72;;;5.00;100.00
60433;BME280;46286;48.098;11.590;2023-04-08T06:23:32;95647.81;;;5.04;100.00
60433;BME280;46286;48.098;11.590;2023-04-08T06:25:58;95651.22;;;5.16;100.00
60433;BME280;46286;48.098;11.590;2023-04-08T06:28:24;95650.66;;;5.02;100.00
60433;BME280;46286;48.098;11.590;2023-04-08T06:30:49;95650.78;;;5.08;100.00
60433;BME280;46286;48.098;11.590;2023-04-08T06:33:15;95656.06;;;5.25;100.00
60433;BME280;46286;48.098;11.590;2023-04-08T06:35:40;95657.31;;;5.22;100.00
60433;BME280;46286;48.098;11.590;2023-04-08T06:38:06;95656.19;;;5.18;100.00
60433;BME280;46286;48.098;11.590;2023-04-08T06:40:31;95657.97;;;5.29;100.00
60433;BME280;46286;48.098;11.590;2023-04-08T06:42:57;95659.13;;;5.33;100.00
60433;BME280;46286;48.098;11.590;2023-04-08T06:45:22;95657.97;;;5.29;100.00
60433;BME280;46286;48.098;11.590;2023-04-08T06:47:48;95659.41;;;5.49;100.00
60433;BME280;46286;48.098;11.590;2023-04-08T06:50:14;95656.13;;;5.42;100.00
60433;BME280;46286;48.098;11.590;2023-04-08T06:52:39;95662.00;;;5.49;100.00
60433;BME280;46286;48.098;11.590;2023-04-08T06:55:05;95671.03;;;5.58;100.00
60433;BME280;46286;48.098;11.590;2023-04-08T06:57:31;95669.94;;;5.54;100.00
60433;BME280;46286;48.098;11.590;2023-04-08T06:59:57;95662.94;;;5.43;100.00
60433;BME280;46286;48.098;11.590;2023-04-08T07:02:25;95668.38;;;5.70;100.00
60433;BME280;46286;48.098;11.590;2023-04-08T07:04:51;95678.22;;;5.80;100.00
60433;BME280;46286;48.098;11.590;2023-04-08T07:07:16;95667.94;;;5.90;100.00
60433;BME280;46286;48.098;11.590;2023-04-08T07:09:42;95676.63;;;5.79;100.00
60433;BME280;46286;48.098;11.590;2023-04-08T07:12:11;95676.16;;;5.82;100.00
60433;BME280;46286;48.098;11.590;2023-04-08T07:14:36;95678.50;;;5.66;100.00
60433;BME280;46286;48.098;11.590;2023-04-08T07:17:02;95669.50;;;5.74;100.00
60433;BME280;46286;48.098;11.590;2023-04-08T07:19:27;95679.34;;;5.84;100.00
60433;BME280;46286;48.098;11.590;2023-04-08T07:21:53;95680.59;;;5.81;100.00
60433;BME280;46286;48.098;11.590;2023-04-08T07:24:18;95677.28;;;5.86;100.00
60433;BME280;46286;48.098;11.590;2023-04-08T07:26:44;95685.94;;;5.75;100.00
60433;BME280;46286;48.098;11.590;2023-04-08T07:29:10;95684.28;;;5.97;100.00
60433;BME280;46286;48.098;11.590;2023-04-08T07:31:35;95687.31;;;6.06;100.00
60433;BME280;46286;48.098;11.590;2023-04-08T07:34:01;95690.25;;;6.10;100.00
60433;BME280;46286;48.098;11.590;2023-04-08T07:36:27;95682.50;;;5.86;100.00
60433;BME280;46286;48.098;11.590;2023-04-08T07:38:52;95689.97;;;5.94;100.00
60433;BME280;46286;48.098;11.590;2023-04-08T07:41:18;95692.41;;;6.13;100.00
60433;BME280;46286;48.098;11.590;2023-04-08T07:43:44;95699.69;;;6.11;100.00
60433;BME280;46286;48.098;11.590;2023-04-08T07:46:09;95703.00;;;6.23;100.00
60433;BME280;46286;48.098;11.590;2023-04-08T07:48:35;95698.09;;;6.10;100.00
60433;BME280;46286;48.098;11.590;2023-04-08T07:51:07;95707.81;;;5.97;100.00
60433;BME280;46286;48.098;11.590;2023-04-08T07:53:33;95715.44;;;5.87;100.00
60433;BME280;46286;48.098;11.590;2023-04-08T07:55:59;95710.84;;;5.94;100.00
60433;BME280;46286;48.098;11.590;2023-04-08T07:58:24;95708.91;;;5.72;100.00
60433;BME280;46286;48.098;11.590;2023-04-08T08:00:50;95710.53;;;5.90;100.00
60433;BME280;46286;48.098;11.590;2023-04-08T08:03:16;95710.22;;;5.87;100.00
60433;BME280;46286;48.098;11.590;2023-04-08T08:05:41;95712.06;;;5.75;100.00
60433;BME280;46286;48.098;11.590;2023-04-08T08:08:07;95717.94;;;5.82;100.00
60433;BME280;46286;48.098;11.590;2023-04-08T08:10:39;95714.97;;;5.90;100.00
60433;BME280;46286;48.098;11.590;2023-04-08T08:13:05;95712.63;;;5.77;100.00
60433;BME280;46286;48.098;11.590;2023-04-08T08:15:32;95723.91;;;5.65;100.00
60433;BME280;46286;48.098;11.590;2023-04-08T08:17:57;95724.09;;;5.76;100.00
60433;BME280;46286;48.098;11.590;2023-04-08T08:20:23;95718.41;;;5.79;100.00
60433;BME280;46286;48.098;11.590;2023-04-08T08:22:48;95715.78;;;5.50;100.00
60433;BME280;46286;48.098;11.590;2023-04-08T08:25:15;95723.78;;;5.72;100.00
60433;BME280;46286;48.098;11.590;2023-04-08T08:27:40;95730.13;;;5.35;100.00
60433;BME280;46286;48.098;11.590;2023-04-08T08:30:07;95730.38;;;5.22;100.00
60433;BME280;46286;48.098;11.590;2023-04-08T08:32:34;95728.66;;;5.28;100.00
60433;BME280;46286;48.098;11.590;2023-04-08T08:35:00;95735.38;;;5.12;100.00
60433;BME280;46286;48.098;11.590;2023-04-08T08:37:26;95739.94;;;5.05;100.00
60433;BME280;46286;48.098;11.590;2023-04-08T08:39:52;95736.75;;;5.02;100.00
60433;BME280;46286;48.098;11.590;2023-04-08T08:42:24;95737.78;;;4.90;100.00
60433;BME280;46286;48.098;11.590;2023-04-08T08:44:50;95734.72;;;4.81;100.00
60433;BME280;46286;48.098;11.590;2023-04-08T08:47:16;95741.16;;;4.66;100.00
60433;BME280;46286;48.098;11.590;2023-04-08T08:49:43;95743.69;;;4.61;100.00
60433;BME280;46286;48.098;11.590;2023-04-08T08:52:09;95741.84;;;4.50;100.00
60433;BME280;46286;48.098;11.590;2023-04-08T08:54:36;95749.06;;;4.48;100.00
60433;BME280;46286;48.098;11.590;2023-04-08T08:57:02;95749.06;;;4.48;100.00
60433;BME280;46286;48.098;11.590;2023-04-08T08:59:28;95750.91;;;4.59;100.00
60433;BME280;46286;48.098;11.590;2023-04-08T09:01:53;95747.66;;;4.76;100.00
60433;BME280;46286;48.098;11.590;2023-04-08T09:04:20;95749.56;;;4.80;100.00
60433;BME280;46286;48.098;11.590;2023-04-08T09:06:47;95753.19;;;4.91;100.00
60433;BME280;46286;48.098;11.590;2023-04-08T09:09:16;95756.94;;;4.95;100.00
60433;BME280;46286;48.098;11.590;2023-04-08T09:11:46;95751.94;;;4.82;100.00
60433;BME280;46286;48.098;11.590;2023-04-08T09:14:22;95756.25;;;4.88;100.00
60433;BME280;46286;48.098;11.590;2023-04-08T09:16:47;95752.50;;;4.84;100.00
60433;BME280;46286;48.098;11.590;2023-04-08T09:19:13;95750.94;;;4.83;100.00
60433;BME280;46286;48.098;11.590;2023-04-08T09:21:39;95757.13;;;4.58;100.00
60433;BME280;46286;48.098;11.590;2023-04-08T09:24:07;95762.09;;;4.48;100.00
60433;BME280;46286;48.098;11.590;2023-04-08T09:26:33;95770.75;;;4.60;100.00
60433;BME280;46286;48.098;11.590;2023-04-08T09:29:07;95766.31;;;4.61;100.00
60433;BME280;46286;48.098;11.590;2023-04-08T09:31:35;95770.88;;;4.77;100.00
60433;BME280;46286;48.098;11.590;2023-04-08T09:34:10;95768.38;;;4.59;100.00
60433;BME280;46286;48.098;11.590;2023-04-08T09:36:36;95768.69;;;4.62;100.00
60433;BME280;46286;48.098;11.590;2023-04-08T09:39:04;95763.47;;;4.39;100.00
60433;BME280;46286;48.098;11.590;2023-04-08T09:41:32;95771.38;;;4.44;100.00
60433;BME280;46286;48.098;11.590;2023-04-08T09:43:59;95772.97;;;4.45;100.00
60433;BME280;46286;48.098;11.590;2023-04-08T09:46:49;95768.69;;;4.39;100.00
60433;BME280;46286;48.098;11.590;2023-04-08T09:49:57;95769.28;;;4.22;100.00
60433;BME280;46286;48.098;11.590;2023-04-08T09:52:33;95765.06;;;4.40;100.00
60433;BME280;46286;48.098;11.590;2023-04-08T09:55:02;95770.28;;;4.40;100.00
60433;BME280;46286;48.098;11.590;2023-04-08T10:00:27;95770.97;;;4.47;100.00
60433;BME280;46286;48.098;11.590;2023-04-08T10:03:01;95770.28;;;4.63;100.00
60433;BME280;46286;48.098;11.590;2023-04-08T10:05:30;95776.19;;;4.71;100.00
60433;BME280;46286;48.098;11.590;2023-04-08T10:07:56;95771.78;;;4.71;100.00
60433;BME280;46286;48.098;11.590;2023-04-08T10:10:25;95769.38;;;4.69;100.00
60433;BME280;46286;48.098;11.590;2023-04-08T10:12:51;95771.66;;;4.78;100.00
60433;BME280;46286;48.098;11.590;2023-04-08T10:15:24;95772.81;;;5.06;100.00
60433;BME280;46286;48.098;11.590;2023-04-08T10:17:55;95774.41;;;5.07;100.00
60433;BME280;46286;48.098;11.590;2023-04-08T10:23:04;95764.09;;;5.64;100.00
60433;BME280;46286;48.098;11.590;2023-04-08T10:25:33;95765.72;;;5.94;100.00
60433;BME280;46286;48.098;11.590;2023-04-08T10:28:00;95769.78;;;5.61;100.00
60433;BME280;46286;48.098;11.590;2023-04-08T10:32:52;95758.34;;;5.91;100.00
60433;BME280;46286;48.098;11.590;2023-04-08T10:35:28;95758.09;;;6.04;100.00
60433;BME280;46286;48.098;11.590;2023-04-08T10:37:53;95767.28;;;6.07;100.00
60433;BME280;46286;48.098;11.590;2023-04-08T10:40:20;95762.94;;;6.13;100.00
60433;BME280;46286;48.098;11.590;2023-04-08T10:42:45;95754.38;;;5.88;100.00
60433;BME280;46286;48.098;11.590;2023-04-08T10:45:15;95757.03;;;6.34;100.00
60433;BME280;46286;48.098;11.590;2023-04-08T10:47:42;95758.44;;;6.08;100.00
60433;BME280;46286;48.098;11.590;2023-04-08T10:50:14;95750.53;;;6.20;100.00
60433;BME280;46286;48.098;11.590;2023-04-08T10:52:50;95753.56;;;6.46;100.00
60433;BME280;46286;48.098;11.590;2023-04-08T10:55:23;95747.22;;;6.41;100.00
60433;BME280;46286;48.098;11.590;2023-04-08T10:57:49;95758.56;;;6.01;100.00
60433;BME280;46286;48.098;11.590;2023-04-08T11:00:34;95748.78;;;5.97;100.00
60433;BME280;46286;48.098;11.590;2023-04-08T11:03:05;95748.44;;;5.93;100.00
60433;BME280;46286;48.098;11.590;2023-04-08T11:05:31;95753.03;;;6.15;100.00
60433;BME280;46286;48.098;11.590;2023-04-08T11:08:00;95753.38;;;6.18;100.00
60433;BME280;46286;48.098;11.590;2023-04-08T11:10:27;95752.59;;;5.77;100.00
60433;BME280;46286;48.098;11.590;2023-04-08T11:12:57;95753.03;;;5.98;100.00
60433;BME280;46286;48.098;11.590;2023-04-08T11:15:23;95758.97;;;6.10;100.00
60433;BME280;46286;48.098;11.590;2023-04-08T11:17:49;95751.88;;;5.82;100.00
60433;BME280;46286;48.098;11.590;2023-04-08T11:20:16;95754.94;;;5.90;100.00
60433;BME280;46286;48.098;11.590;2023-04-08T11:22:43;95755.72;;;5.91;100.00
60433;BME280;46286;48.098;11.590;2023-04-08T11:25:10;95757.91;;;5.53;100.00
60433;BME280;46286;48.098;11.590;2023-04-08T11:27:37;95766.47;;;5.66;100.00
60433;BME280;46286;48.098;11.590;2023-04-08T11:30:05;95760.53;;;5.42;100.00
60433;BME280;46286;48.098;11.590;2023-04-08T11:32:31;95767.44;;;5.48;100.00
60433;BME280;46286;48.098;11.590;2023-04-08T11:35:01;95754.88;;;5.21;100.00
60433;BME280;46286;48.098;11.590;2023-04-08T11:37:39;95757.16;;;5.29;100.00
60433;BME280;46286;48.098;11.590;2023-04-08T11:40:09;95758.94;;;5.41;100.00
60433;BME280;46286;48.098;11.590;2023-04-08T11:42:36;95766.09;;;5.45;100.00
60433;BME280;46286;48.098;11.590;2023-04-08T11:45:12;95766.19;;;5.38;100.00
60433;BME280;46286;48.098;11.590;2023-04-08T11:47:39;95756.38;;;5.29;100.00
60433;BME280;46286;48.098;11.590;2023-04-08T11:50:05;95753.88;;;5.22;100.00
60433;BME280;46286;48.098;11.590;2023-04-08T11:52:49;95759.88;;;5.34;100.00
60433;BME280;46286;48.098;11.590;2023-04-08T11:57:51;95762.59;;;4.92;100.00
60433;BME280;46286;48.098;11.590;2023-04-08T12:00:18;95766.22;;;4.91;100.00
60433;BME280;46286;48.098;11.590;2023-04-08T12:02:44;95765.53;;;4.84;100.00
60433;BME280;46286;48.098;11.590;2023-04-08T12:05:11;95774.38;;;4.59;100.00
60433;BME280;46286;48.098;11.590;2023-04-08T12:07:36;95768.69;;;4.62;100.00
60433;BME280;46286;48.098;11.590;2023-04-08T12:10:02;95778.47;;;4.79;100.00
60433;BME280;46286;48.098;11.590;2023-04-08T12:12:28;95778.13;;;4.75;100.00
60433;BME280;46286;48.098;11.590;2023-04-08T12:14:54;95787.78;;;4.75;100.00
60433;BME280;46286;48.098;11.590;2023-04-08T12:17:19;95784.84;;;4.95;100.00
60433;BME280;46286;48.098;11.590;2023-04-08T12:19:45;95787.09;;;4.79;100.00
60433;BME280;46286;48.098;11.590;2023-04-08T12:22:11;95789.38;;;4.76;100.00
60433;BME280;46286;48.098;11.590;2023-04-08T12:24:36;95785.41;;;4.85;100.00
60433;BME280;46286;48.098;11.590;2023-04-08T12:27:02;95785.28;;;4.80;100.00
60433;BME280;46286;48.098;11.590;2023-04-08T12:29:30;95788.91;;;4.79;100.00
60433;BME280;46286;48.098;11.590;2023-04-08T12:31:55;95789.59;;;4.74;100.00
60433;BME280;46286;48.098;11.590;2023-04-08T12:34:21;95800.69;;;4.69;100.00
60433;BME280;46286;48.098;11.590;2023-04-08T12:36:47;95788.41;;;4.58;100.00
60433;BME280;46286;48.098;11.590;2023-04-08T12:39:14;95797.16;;;4.64;100.00
60433;BME280;46286;48.098;11.590;2023-04-08T12:41:39;95805.00;;;4.76;100.00
60433;BME280;46286;48.098;11.590;2023-04-08T12:44:05;95809.78;;;4.79;100.00
60433;BME280;46286;48.098;11.590;2023-04-08T12:46:31;95798.84;;;4.58;100.00
60433;BME280;46286;48.098;11.590;2023-04-08T12:48:57;95801.88;;;4.43;100.00
60433;BME280;46286;48.098;11.590;2023-04-08T12:51:22;95797.28;;;4.57;100.00
60433;BME280;46286;48.098;11.590;2023-04-08T12:53:49;95800.44;;;4.59;100.00
60433;BME280;46286;48.098;11.590;2023-04-08T12:56:14;95801.34;;;4.53;100.00
60433;BME280;46286;48.098;11.590;2023-04-08T12:58:40;95808.56;;;4.51;100.00
60433;BME280;46286;48.098;11.590;2023-04-08T13:01:06;95801.19;;;4.48;100.00
60433;BME280;46286;48.098;11.590;2023-04-08T13:03:31;95807.69;;;4.57;100.00
60433;BME280;46286;48.098;11.590;2023-04-08T13:05:57;95803.03;;;4.47;100.00
60433;BME280;46286;48.098;11.590;2023-04-08T13:08:24;95813.78;;;4.51;100.00